Time;durP1;ratioP1;P1;durP2;ratioP2;P2;SDS_P1;SDS_P2;PMS_P1;PMS_P2;Temp;Humidity;BMP_temperature;BMP_pressure;BME280_temperature;BME280_humidity;BME280_pressure;Samples;Min_cycle;Max_cycle;Signal;HPM_P1;HPM_P2
2022/03/24 00:00:30;;;;;;;22.25;12.07;;;7.80;65.30;;;;;;4993643;28;20050;-85
2022/03/24 00:02:56;;;;;;;23.67;12.38;;;7.50;65.90;;;;;;4982314;28;20050;-85
2022/03/24 00:05:21;;;;;;;24.25;12.65;;;7.30;66.60;;;;;;4994601;28;20178;-85
2022/03/24 00:07:47;;;;;;;25.90;12.88;;;7.20;67.30;;;;;;4995321;28;20030;-85
2022/03/24 00:10:13;;;;;;;22.88;12.43;;;7.00;67.70;;;;;;4995442;28;20046;-85
2022/03/24 00:12:41;;;;;;;24.58;12.50;;;7.00;68.30;;;;;;4994335;28;20026;-85
2022/03/24 00:15:08;;;;;;;29.45;14.18;;;6.90;68.60;;;;;;4989537;28;20086;-85
2022/03/24 00:17:34;;;;;;;27.33;15.15;;;6.90;68.90;;;;;;4993873;28;20054;-85
2022/03/24 00:20:00;;;;;;;26.02;14.30;;;6.90;69.30;;;;;;4994375;28;20049;-85
2022/03/24 00:22:26;;;;;;;29.00;14.95;;;6.90;69.60;;;;;;4990719;28;20069;-85
2022/03/24 00:24:52;;;;;;;31.88;15.45;;;6.90;70.00;;;;;;4982124;28;20066;-85
2022/03/24 00:27:18;;;;;;;38.72;14.73;;;6.90;70.30;;;;;;4994560;28;20062;-85
2022/03/24 00:29:43;;;;;;;28.38;14.95;;;6.80;70.50;;;;;;4992698;28;20033;-85
2022/03/24 00:32:09;;;;;;;26.33;14.40;;;6.80;70.90;;;;;;4988741;28;20030;-85
2022/03/24 00:34:35;;;;;;;30.98;15.60;;;6.70;71.30;;;;;;4994269;28;20053;-84
2022/03/24 00:37:02;;;;;;;30.52;15.95;;;6.60;71.70;;;;;;4991561;28;20149;-85
2022/03/24 00:39:33;;;;;;;27.80;14.50;;;6.60;72.10;;;;;;4982744;28;20030;-85
2022/03/24 00:42:00;;;;;;;31.00;16.55;;;6.50;72.50;;;;;;4994509;28;20038;-85
2022/03/24 00:44:26;;;;;;;29.13;16.20;;;6.40;72.80;;;;;;4988877;28;20014;-85
2022/03/24 00:46:51;;;;;;;29.25;16.90;;;6.40;73.30;;;;;;4987411;28;20149;-85
2022/03/24 00:49:17;;;;;;;31.70;18.42;;;6.40;73.70;;;;;;4992627;28;20369;-85
2022/03/24 00:51:44;;;;;;;28.33;16.73;;;6.40;74.10;;;;;;4994936;28;20065;-86
2022/03/24 00:54:10;;;;;;;32.85;17.77;;;6.40;74.50;;;;;;4993959;28;20030;-85
2022/03/24 00:56:36;;;;;;;34.60;17.52;;;6.30;74.80;;;;;;4987335;28;20027;-85
2022/03/24 00:59:01;;;;;;;31.08;17.15;;;6.20;75.20;;;;;;4994183;28;20033;-85
2022/03/24 01:01:27;;;;;;;32.53;18.85;;;6.20;75.80;;;;;;4990866;28;20038;-85
2022/03/24 01:03:52;;;;;;;37.63;18.48;;;6.20;76.20;;;;;;4990753;28;20022;-85
2022/03/24 01:06:18;;;;;;;39.92;19.02;;;6.10;76.60;;;;;;4993869;28;20157;-85
2022/03/24 01:08:44;;;;;;;36.08;17.65;;;6.10;76.90;;;;;;4992782;28;20036;-85
2022/03/24 01:11:10;;;;;;;34.20;18.95;;;6.20;77.20;;;;;;4993557;28;20026;-85
2022/03/24 01:13:38;;;;;;;38.15;19.13;;;6.20;77.40;;;;;;4984992;28;20122;-85
2022/03/24 01:16:04;;;;;;;38.33;19.30;;;6.10;77.80;;;;;;4982368;28;20026;-85
2022/03/24 01:18:34;;;;;;;40.22;20.30;;;6.10;78.10;;;;;;5003679;28;20053;-85
2022/03/24 01:21:02;;;;;;;37.03;20.23;;;6.00;78.40;;;;;;4994028;28;20074;-85
2022/03/24 01:23:28;;;;;;;37.67;20.13;;;5.90;78.70;;;;;;4987791;28;20034;-85
2022/03/24 01:25:54;;;;;;;33.53;18.55;;;5.90;79.00;;;;;;4990934;28;20585;-85
2022/03/24 01:28:20;;;;;;;33.85;18.17;;;5.90;79.30;;;;;;4988097;28;20494;-85
2022/03/24 01:30:46;;;;;;;39.08;20.30;;;5.80;79.60;;;;;;4995506;28;20022;-85
2022/03/24 01:33:12;;;;;;;32.65;19.23;;;5.90;80.10;;;;;;4992664;28;20076;-86
2022/03/24 01:35:38;;;;;;;38.38;19.38;;;5.90;80.40;;;;;;4992262;28;20030;-85
2022/03/24 01:38:03;;;;;;;35.78;19.15;;;5.80;80.70;;;;;;4985615;28;20108;-85
2022/03/24 01:40:29;;;;;;;34.55;19.45;;;5.70;81.00;;;;;;4993711;28;20097;-86
2022/03/24 01:42:55;;;;;;;33.08;18.55;;;5.60;81.40;;;;;;4985356;28;20533;-85
2022/03/24 01:45:20;;;;;;;28.67;16.67;;;5.50;81.70;;;;;;4988685;28;20022;-85
2022/03/24 01:47:46;;;;;;;36.40;18.63;;;5.50;82.00;;;;;;4975850;28;20034;-85
2022/03/24 01:50:12;;;;;;;30.90;18.52;;;5.50;82.40;;;;;;4991923;28;20522;-85
2022/03/24 01:52:37;;;;;;;33.70;17.20;;;5.40;82.60;;;;;;4990548;28;20022;-85
2022/03/24 01:55:06;;;;;;;37.50;18.58;;;5.40;82.70;;;;;;4995435;28;20027;-85
2022/03/24 01:57:32;;;;;;;37.53;19.73;;;5.40;83.00;;;;;;4992022;28;20034;-85
2022/03/24 02:00:00;;;;;;;36.60;17.92;;;5.30;83.30;;;;;;4994356;28;20031;-85
2022/03/24 02:02:26;;;;;;;34.65;18.05;;;5.20;83.50;;;;;;4985199;28;20060;-85
2022/03/24 02:04:51;;;;;;;32.17;17.38;;;5.20;83.80;;;;;;4984074;28;20030;-85
2022/03/24 02:07:17;;;;;;;32.70;16.55;;;5.20;84.00;;;;;;4985552;28;20030;-85
2022/03/24 02:09:43;;;;;;;32.78;17.25;;;5.20;84.30;;;;;;4999800;28;20083;-85
2022/03/24 02:12:10;;;;;;;36.75;18.20;;;5.10;84.40;;;;;;4992112;28;20129;-85
2022/03/24 02:14:37;;;;;;;35.55;18.13;;;5.10;84.60;;;;;;4991582;28;20058;-85
2022/03/24 02:17:04;;;;;;;34.20;18.15;;;5.10;84.80;;;;;;4990580;28;20034;-85
2022/03/24 02:19:31;;;;;;;37.88;16.90;;;5.10;85.20;;;;;;4992576;28;20499;-85
2022/03/24 02:22:07;;;;;;;39.80;19.38;;;5.10;85.20;;;;;;4991902;28;20129;-85
2022/03/24 02:24:34;;;;;;;38.63;18.25;;;5.10;85.30;;;;;;4992211;28;20026;-85
2022/03/24 02:27:02;;;;;;;32.85;18.25;;;5.10;85.60;;;;;;4992871;28;20031;-85
2022/03/24 02:29:28;;;;;;;33.65;17.70;;;5.10;86.10;;;;;;4989309;28;20019;-85
2022/03/24 02:31:54;;;;;;;35.83;18.48;;;5.00;86.40;;;;;;4990318;28;20026;-85
2022/03/24 02:37:11;;;;;;;42.05;18.98;;;4.90;87.60;;;;;;4983740;28;20506;-85
2022/03/24 02:39:38;;;;;;;31.55;17.67;;;4.80;88.00;;;;;;4974064;28;20043;-86
2022/03/24 02:42:05;;;;;;;35.30;19.52;;;4.80;88.50;;;;;;4989860;28;20122;-85
2022/03/24 02:44:31;;;;;;;40.47;20.42;;;4.80;89.00;;;;;;4992865;28;20121;-85
2022/03/24 02:47:03;;;;;;;33.13;18.88;;;4.70;89.50;;;;;;4979137;28;20079;-85
2022/03/24 02:49:30;;;;;;;36.75;19.20;;;4.80;90.00;;;;;;4987191;28;20089;-85
2022/03/24 02:51:58;;;;;;;41.47;19.50;;;4.70;90.10;;;;;;4994321;28;20101;-85
2022/03/24 02:54:25;;;;;;;34.67;18.35;;;4.70;90.30;;;;;;4992409;28;20030;-85
2022/03/24 02:56:51;;;;;;;35.63;19.48;;;4.70;90.60;;;;;;4984231;28;20039;-85
2022/03/24 02:59:17;;;;;;;34.88;18.60;;;4.60;90.90;;;;;;4984805;28;20113;-85
2022/03/24 03:01:50;;;;;;;34.13;18.85;;;4.60;91.20;;;;;;4988241;28;20062;-85
2022/03/24 03:04:16;;;;;;;38.88;18.75;;;4.60;91.50;;;;;;4997051;28;20080;-85
2022/03/24 03:06:42;;;;;;;38.03;20.35;;;4.50;91.60;;;;;;4987308;28;20042;-85
2022/03/24 03:09:08;;;;;;;50.35;20.45;;;4.40;91.90;;;;;;4988431;28;20023;-85
2022/03/24 03:11:33;;;;;;;38.38;20.50;;;4.30;92.30;;;;;;4978090;28;20030;-85
2022/03/24 03:14:00;;;;;;;42.03;22.35;;;4.30;92.70;;;;;;4985825;28;20037;-85
2022/03/24 03:16:27;;;;;;;38.55;21.80;;;4.40;93.10;;;;;;4981981;28;20062;-85
2022/03/24 03:18:55;;;;;;;42.75;21.20;;;4.40;93.30;;;;;;4995736;28;20029;-85
2022/03/24 03:21:21;;;;;;;40.38;21.42;;;4.30;93.50;;;;;;4995466;28;20129;-85
2022/03/24 03:23:47;;;;;;;46.83;22.33;;;4.30;93.90;;;;;;4995308;28;20137;-85
2022/03/24 03:26:16;;;;;;;42.85;23.02;;;4.30;94.10;;;;;;4994962;28;20030;-85
2022/03/24 03:28:42;;;;;;;46.92;22.77;;;4.30;94.40;;;;;;4995317;28;20466;-85
2022/03/24 03:31:08;;;;;;;48.88;23.42;;;4.20;94.70;;;;;;4983005;28;20026;-85
2022/03/24 03:33:34;;;;;;;45.47;23.23;;;4.30;95.20;;;;;;4994113;28;20027;-85
2022/03/24 03:35:59;;;;;;;47.83;22.10;;;4.30;95.40;;;;;;4996103;28;20505;-85
2022/03/24 03:38:26;;;;;;;49.03;25.05;;;4.30;95.80;;;;;;4995352;28;20113;-85
2022/03/24 03:40:53;;;;;;;46.42;24.27;;;4.30;96.10;;;;;;4995147;28;20034;-85
2022/03/24 03:43:19;;;;;;;43.88;22.30;;;4.30;96.30;;;;;;4990570;28;20093;-85
2022/03/24 03:45:45;;;;;;;47.55;21.70;;;4.30;96.60;;;;;;4995454;28;20551;-85
2022/03/24 03:48:11;;;;;;;48.67;24.55;;;4.30;96.80;;;;;;4996900;28;20061;-85
2022/03/24 03:50:41;;;;;;;46.15;23.35;;;4.20;97.00;;;;;;5004804;28;20073;-85
2022/03/24 03:53:08;;;;;;;49.13;23.70;;;4.20;97.40;;;;;;4996545;28;20030;-85
2022/03/24 03:55:35;;;;;;;50.13;22.98;;;4.20;97.70;;;;;;4992308;28;20479;-85
2022/03/24 03:58:01;;;;;;;46.75;22.80;;;4.20;98.00;;;;;;4993256;28;20569;-85
2022/03/24 04:03:11;;;;;;;42.67;22.80;;;4.20;98.30;;;;;;4988273;28;20045;-85
2022/03/24 04:05:37;;;;;;;45.60;22.88;;;4.20;98.30;;;;;;4989244;28;20034;-85
2022/03/24 04:08:03;;;;;;;51.72;25.13;;;4.20;98.50;;;;;;4984186;28;20029;-85
2022/03/24 04:10:30;;;;;;;48.28;22.42;;;4.10;98.60;;;;;;4993974;28;20034;-85
2022/03/24 04:12:56;;;;;;;46.85;24.98;;;4.10;98.90;;;;;;4994155;28;20096;-85
2022/03/24 04:15:22;;;;;;;41.13;22.15;;;4.00;99.00;;;;;;4989086;28;20050;-85
2022/03/24 04:17:49;;;;;;;42.15;22.13;;;3.90;99.20;;;;;;4991959;28;20026;-85
2022/03/24 04:20:20;;;;;;;41.28;21.80;;;3.80;99.30;;;;;;4989524;28;20049;-85
2022/03/24 04:22:58;;;;;;;50.17;23.35;;;3.80;99.60;;;;;;4986969;28;20056;-85
2022/03/24 04:25:24;;;;;;;46.42;23.42;;;3.70;99.90;;;;;;4987324;28;20391;-85
2022/03/24 04:27:50;;;;;;;53.88;23.70;;;3.70;99.90;;;;;;4993424;28;20034;-85
2022/03/24 04:30:17;;;;;;;44.85;22.23;;;3.60;99.90;;;;;;4993680;28;20027;-85
2022/03/24 04:32:46;;;;;;;45.72;23.25;;;3.60;99.90;;;;;;4991679;28;20034;-85
2022/03/24 04:35:13;;;;;;;46.95;21.98;;;3.50;99.90;;;;;;4985521;28;20027;-85
2022/03/24 04:37:40;;;;;;;47.38;22.90;;;3.50;99.90;;;;;;4993587;28;20518;-85
2022/03/24 04:40:06;;;;;;;50.10;24.40;;;3.40;99.90;;;;;;5008033;28;20031;-85
2022/03/24 04:42:33;;;;;;;55.35;25.35;;;3.40;99.90;;;;;;4988434;28;20402;-85
2022/03/24 04:44:59;;;;;;;47.65;23.83;;;3.40;99.90;;;;;;4990828;28;20103;-85
2022/03/24 04:47:25;;;;;;;53.78;24.48;;;3.30;99.90;;;;;;4999992;28;20108;-85
2022/03/24 04:49:50;;;;;;;48.47;24.48;;;3.30;99.90;;;;;;4995228;28;20113;-85
2022/03/24 04:52:16;;;;;;;40.95;22.50;;;3.40;99.90;;;;;;4993288;28;20112;-85
2022/03/24 04:54:42;;;;;;;44.78;21.55;;;3.40;99.90;;;;;;4983103;28;20121;-85
2022/03/24 04:57:08;;;;;;;45.00;22.75;;;3.40;99.90;;;;;;4986385;28;20437;-85
2022/03/24 04:59:34;;;;;;;44.63;22.98;;;3.40;99.90;;;;;;4990012;28;20022;-85
2022/03/24 05:02:00;;;;;;;45.53;22.73;;;3.40;99.90;;;;;;4982932;28;20034;-85
2022/03/24 05:04:25;;;;;;;44.83;23.20;;;3.40;99.90;;;;;;4980330;28;20090;-85
2022/03/24 05:06:51;;;;;;;46.38;23.65;;;3.50;99.90;;;;;;4987792;28;20940;-85
2022/03/24 05:09:17;;;;;;;44.28;21.48;;;3.50;99.90;;;;;;4987333;28;20031;-85
2022/03/24 05:11:43;;;;;;;41.10;22.42;;;3.50;99.90;;;;;;4994416;28;20040;-85
2022/03/24 05:14:09;;;;;;;46.38;22.50;;;3.50;99.90;;;;;;4994201;28;20026;-84
2022/03/24 05:16:35;;;;;;;40.22;21.45;;;3.40;99.90;;;;;;4990697;28;20373;-85
2022/03/24 05:19:01;;;;;;;39.60;19.95;;;3.30;99.90;;;;;;4990403;28;20356;-85
2022/03/24 05:21:27;;;;;;;38.47;20.90;;;3.30;99.90;;;;;;4991693;28;20049;-85
2022/03/24 05:23:52;;;;;;;42.47;21.25;;;3.20;99.90;;;;;;4980209;28;20081;-86
2022/03/24 05:26:20;;;;;;;45.55;21.35;;;3.20;99.90;;;;;;4983295;28;20027;-86
2022/03/24 05:28:47;;;;;;;47.40;22.40;;;3.20;99.90;;;;;;4992201;28;20064;-86
2022/03/24 05:31:12;;;;;;;45.63;21.50;;;3.10;99.90;;;;;;4979176;28;20062;-86
2022/03/24 05:33:38;;;;;;;44.20;22.35;;;3.10;99.90;;;;;;4979879;28;20050;-85
2022/03/24 05:36:04;;;;;;;47.75;22.50;;;3.10;99.90;;;;;;4984504;28;20056;-86
2022/03/24 05:38:29;;;;;;;48.10;21.98;;;3.20;99.90;;;;;;4976278;28;20114;-86
2022/03/24 05:40:55;;;;;;;47.55;22.48;;;3.20;99.90;;;;;;4975706;28;20031;-86
2022/03/24 05:43:20;;;;;;;42.83;21.00;;;3.20;99.90;;;;;;4974014;28;20495;-85
2022/03/24 05:45:46;;;;;;;44.75;23.58;;;3.20;99.90;;;;;;4976096;28;20095;-85
2022/03/24 05:48:12;;;;;;;51.78;22.40;;;3.20;99.90;;;;;;4983135;28;20061;-85
2022/03/24 05:50:40;;;;;;;48.28;21.20;;;3.20;99.90;;;;;;4988579;28;20035;-86
2022/03/24 05:53:06;;;;;;;47.08;22.00;;;3.20;99.90;;;;;;4975568;28;20503;-86
2022/03/24 05:55:34;;;;;;;44.92;21.63;;;3.20;99.90;;;;;;4986595;28;20054;-87
2022/03/24 05:58:00;;;;;;;45.28;22.08;;;3.30;99.90;;;;;;4975700;28;20055;-86
2022/03/24 06:00:26;;;;;;;42.72;21.98;;;3.30;99.90;;;;;;4988437;28;20361;-86
2022/03/24 06:02:54;;;;;;;43.60;20.45;;;3.30;99.90;;;;;;4985281;28;20141;-86
2022/03/24 06:05:20;;;;;;;41.58;20.20;;;3.20;99.90;;;;;;4979967;28;20062;-86
2022/03/24 06:07:46;;;;;;;41.17;21.48;;;3.20;99.90;;;;;;4980048;28;20035;-86
2022/03/24 06:10:12;;;;;;;42.72;22.23;;;3.30;99.90;;;;;;4983124;28;20034;-86
2022/03/24 06:12:39;;;;;;;43.70;20.35;;;3.30;99.90;;;;;;4976789;28;20033;-86
2022/03/24 06:15:05;;;;;;;46.25;21.70;;;3.30;99.90;;;;;;4995119;28;20030;-87
2022/03/24 06:17:31;;;;;;;47.13;22.52;;;3.30;99.90;;;;;;4983802;28;20487;-87
2022/03/24 06:19:57;;;;;;;43.97;22.55;;;3.30;99.90;;;;;;4977749;28;20034;-86
2022/03/24 06:22:23;;;;;;;49.15;24.23;;;3.30;99.90;;;;;;4994157;28;20049;-86
2022/03/24 06:24:48;;;;;;;52.33;24.48;;;3.40;99.90;;;;;;4989626;28;20106;-86
2022/03/24 06:27:16;;;;;;;49.85;25.08;;;3.40;99.90;;;;;;4986382;28;20019;-87
2022/03/24 06:29:41;;;;;;;46.10;23.10;;;3.40;99.90;;;;;;4985920;28;20443;-87
2022/03/24 06:32:07;;;;;;;44.55;21.98;;;3.50;99.90;;;;;;4986814;28;20103;-87
2022/03/24 06:34:32;;;;;;;48.60;23.98;;;3.60;99.90;;;;;;4986101;28;20031;-86
2022/03/24 06:36:58;;;;;;;51.67;25.05;;;3.70;99.90;;;;;;4973925;28;20100;-87
2022/03/24 06:39:23;;;;;;;61.20;24.75;;;3.80;99.90;;;;;;4980823;28;20035;-87
2022/03/24 06:41:49;;;;;;;54.17;24.75;;;3.90;99.90;;;;;;4988209;28;20106;-87
2022/03/24 06:44:15;;;;;;;46.10;24.80;;;4.00;99.90;;;;;;4992963;28;20031;-85
2022/03/24 06:46:41;;;;;;;53.97;26.45;;;4.10;99.90;;;;;;4988800;28;20049;-85
2022/03/24 06:49:07;;;;;;;50.30;24.80;;;4.30;99.90;;;;;;4987635;28;20471;-85
2022/03/24 06:51:34;;;;;;;52.90;26.30;;;4.40;99.90;;;;;;4976975;28;20504;-85
2022/03/24 06:54:01;;;;;;;52.38;26.98;;;4.50;99.90;;;;;;4996311;28;20034;-85
2022/03/24 06:56:26;;;;;;;52.28;25.55;;;4.70;99.90;;;;;;4989780;28;20030;-85
2022/03/24 06:58:52;;;;;;;50.58;25.92;;;4.80;99.90;;;;;;4981464;28;20033;-85
2022/03/24 07:01:18;;;;;;;49.72;25.52;;;5.00;99.90;;;;;;4982002;28;20364;-86
2022/03/24 07:03:44;;;;;;;54.78;27.52;;;5.10;99.90;;;;;;4973190;28;20073;-86
2022/03/24 07:06:10;;;;;;;52.15;25.95;;;5.20;99.90;;;;;;4982896;28;20038;-86
2022/03/24 07:08:36;;;;;;;53.40;25.80;;;5.30;99.90;;;;;;4981027;28;20094;-87
2022/03/24 07:11:03;;;;;;;56.63;26.83;;;5.40;99.90;;;;;;4991486;28;20041;-86
2022/03/24 07:13:28;;;;;;;49.75;25.23;;;5.50;99.90;;;;;;5005144;28;20482;-86
2022/03/24 07:15:54;;;;;;;56.50;25.58;;;5.60;99.90;;;;;;4987415;28;20042;-85
2022/03/24 07:18:20;;;;;;;48.10;27.17;;;5.80;99.90;;;;;;4974919;28;20038;-86
2022/03/24 07:20:45;;;;;;;49.72;25.80;;;5.90;99.90;;;;;;4982336;28;20133;-87
2022/03/24 07:23:11;;;;;;;54.67;26.73;;;6.00;99.90;;;;;;4991055;28;20043;-86
2022/03/24 07:25:39;;;;;;;49.13;25.55;;;6.20;99.90;;;;;;4990232;28;20077;-86
2022/03/24 07:28:06;;;;;;;44.65;24.23;;;6.40;99.90;;;;;;4986496;28;20038;-86
2022/03/24 07:30:31;;;;;;;48.70;25.90;;;6.60;99.90;;;;;;4989627;28;20101;-86
2022/03/24 07:33:02;;;;;;;45.65;24.95;;;6.70;99.90;;;;;;4989521;28;20022;-86
2022/03/24 07:35:29;;;;;;;44.30;23.38;;;6.90;99.90;;;;;;4989192;28;20044;-87
2022/03/24 07:37:55;;;;;;;47.72;25.13;;;7.10;99.90;;;;;;4991113;28;20030;-86
2022/03/24 07:40:23;;;;;;;42.25;23.58;;;7.20;99.90;;;;;;4991247;28;20038;-87
2022/03/24 07:42:52;;;;;;;49.30;24.85;;;7.40;99.90;;;;;;4989649;28;20063;-86
2022/03/24 07:45:20;;;;;;;49.92;24.52;;;7.60;99.90;;;;;;4988859;28;20073;-85
2022/03/24 07:48:06;;;;;;;48.38;25.25;;;7.80;99.90;;;;;;4993589;28;20022;-86
2022/03/24 07:50:32;;;;;;;46.17;24.42;;;8.00;99.90;;;;;;4998695;28;20026;-87
2022/03/24 07:53:08;;;;;;;44.13;23.70;;;8.10;99.90;;;;;;4999474;28;20034;-86
2022/03/24 07:55:37;;;;;;;43.05;22.98;;;8.30;99.50;;;;;;4990597;28;20400;-85
2022/03/24 07:58:03;;;;;;;42.42;23.67;;;8.50;98.90;;;;;;4991436;28;20487;-85
2022/03/24 08:00:28;;;;;;;44.20;24.02;;;8.60;98.50;;;;;;5000255;28;20045;-86
2022/03/24 08:02:54;;;;;;;45.35;22.67;;;8.80;97.90;;;;;;4993428;28;20034;-85
2022/03/24 08:05:19;;;;;;;44.75;25.33;;;8.90;97.70;;;;;;4986058;28;20104;-86
2022/03/24 08:07:45;;;;;;;53.05;24.70;;;9.10;97.50;;;;;;4992086;28;20026;-86
2022/03/24 08:10:10;;;;;;;36.75;23.20;;;9.30;97.20;;;;;;4977554;28;20386;-86
2022/03/24 08:12:36;;;;;;;46.50;24.27;;;9.40;96.80;;;;;;4994078;28;20034;-86
2022/03/24 08:15:02;;;;;;;44.03;24.85;;;9.60;96.50;;;;;;4995265;28;20122;-86
2022/03/24 08:17:28;;;;;;;43.55;23.95;;;9.70;95.80;;;;;;4994928;28;20030;-86
2022/03/24 08:19:53;;;;;;;49.28;24.90;;;9.90;95.10;;;;;;4992972;28;20086;-86
2022/03/24 08:22:20;;;;;;;51.33;25.00;;;10.00;94.50;;;;;;4993752;28;20085;-86
2022/03/24 08:24:45;;;;;;;50.58;24.38;;;10.10;94.30;;;;;;4992394;28;20463;-86
2022/03/24 08:27:11;;;;;;;44.47;22.95;;;10.30;93.90;;;;;;4980477;28;20034;-86
2022/03/24 08:29:36;;;;;;;45.80;22.92;;;10.50;93.30;;;;;;4990167;28;20054;-86
2022/03/24 08:32:03;;;;;;;43.85;23.08;;;10.60;92.70;;;;;;4989372;28;20054;-85
2022/03/24 08:34:28;;;;;;;38.63;22.83;;;10.80;92.40;;;;;;4992780;28;20026;-86
2022/03/24 08:36:54;;;;;;;41.50;23.02;;;11.00;91.80;;;;;;4991391;28;20085;-86
2022/03/24 08:39:19;;;;;;;43.13;24.13;;;11.10;91.10;;;;;;4986318;28;20064;-85
2022/03/24 08:41:45;;;;;;;40.33;22.83;;;11.20;90.70;;;;;;4994562;28;20038;-86
2022/03/24 08:44:11;;;;;;;41.15;22.35;;;11.40;90.40;;;;;;4992104;28;20027;-86
2022/03/24 08:46:37;;;;;;;34.25;21.92;;;11.60;89.60;;;;;;4994462;28;20031;-86
2022/03/24 08:49:02;;;;;;;40.28;23.05;;;11.70;88.40;;;;;;4990280;28;20027;-86
2022/03/24 08:51:28;;;;;;;38.95;22.20;;;11.80;87.40;;;;;;4994654;28;20022;-85
2022/03/24 08:53:54;;;;;;;40.80;21.48;;;12.00;86.30;;;;;;4984096;28;20502;-85
2022/03/24 08:56:19;;;;;;;39.28;22.23;;;12.10;84.90;;;;;;4980453;28;20034;-86
2022/03/24 08:58:46;;;;;;;39.78;23.15;;;12.20;84.30;;;;;;4990802;28;20117;-86
2022/03/24 09:01:11;;;;;;;37.65;21.52;;;12.40;83.50;;;;;;5008310;28;20041;-86
2022/03/24 09:03:37;;;;;;;36.88;21.02;;;12.50;82.60;;;;;;4998725;28;20039;-85
2022/03/24 09:06:03;;;;;;;37.58;21.38;;;12.60;81.40;;;;;;4994427;28;20022;-86
2022/03/24 09:08:28;;;;;;;32.28;20.08;;;12.70;79.90;;;;;;4994085;28;20041;-85
2022/03/24 09:10:54;;;;;;;39.55;22.60;;;12.90;79.00;;;;;;4993635;28;20554;-86
2022/03/24 09:13:19;;;;;;;32.78;21.63;;;13.00;77.60;;;;;;4992643;28;20084;-86
2022/03/24 09:15:45;;;;;;;35.42;20.83;;;13.10;76.20;;;;;;4993687;28;20400;-86
2022/03/24 09:18:11;;;;;;;32.00;20.02;;;13.30;74.40;;;;;;4992924;28;20121;-86
2022/03/24 09:20:37;;;;;;;31.70;18.65;;;13.30;72.90;;;;;;4990010;28;20061;-85
2022/03/24 09:23:02;;;;;;;29.42;19.02;;;13.50;71.70;;;;;;4982022;28;20030;-86
2022/03/24 09:25:28;;;;;;;30.70;19.88;;;13.60;70.60;;;;;;4985128;28;20518;-86
2022/03/24 09:27:54;;;;;;;35.13;19.52;;;13.70;70.10;;;;;;4993140;28;20026;-86
2022/03/24 09:30:20;;;;;;;33.60;20.27;;;13.80;69.30;;;;;;4984026;28;20074;-86
2022/03/24 09:32:47;;;;;;;34.63;20.42;;;13.90;69.00;;;;;;4990843;28;20042;-86
2022/03/24 09:35:13;;;;;;;34.05;20.33;;;14.00;68.00;;;;;;4985543;28;20054;-86
2022/03/24 09:37:39;;;;;;;31.65;21.30;;;14.20;68.20;;;;;;4990866;28;20034;-86
2022/03/24 09:40:06;;;;;;;31.98;21.05;;;14.30;67.10;;;;;;4990610;28;20019;-86
2022/03/24 09:42:33;;;;;;;33.00;19.20;;;14.40;66.10;;;;;;4984181;28;20035;-84
2022/03/24 09:45:02;;;;;;;38.33;19.40;;;14.50;65.10;;;;;;4976410;28;20446;-86
2022/03/24 09:47:29;;;;;;;27.67;19.52;;;14.60;65.20;;;;;;4973427;28;20035;-86
2022/03/24 09:49:54;;;;;;;33.22;20.17;;;14.70;64.40;;;;;;4992192;28;20109;-86
2022/03/24 09:52:22;;;;;;;33.08;19.50;;;14.80;64.00;;;;;;4993280;28;20465;-86
2022/03/24 09:54:48;;;;;;;35.15;20.70;;;14.90;63.80;;;;;;4980356;28;20023;-85
2022/03/24 09:57:14;;;;;;;29.52;19.70;;;14.90;63.30;;;;;;4991607;28;20038;-85
2022/03/24 09:59:42;;;;;;;33.17;20.92;;;15.00;63.10;;;;;;4983121;28;20058;-85
2022/03/24 10:02:08;;;;;;;28.35;20.05;;;15.10;62.10;;;;;;4981053;28;20038;-85
2022/03/24 10:04:51;;;;;;;30.30;20.50;;;15.20;61.70;;;;;;4979500;28;20483;-86
2022/03/24 10:07:19;;;;;;;26.85;19.05;;;15.30;59.80;;;;;;4993400;28;20042;-85
2022/03/24 10:09:47;;;;;;;28.33;18.15;;;15.40;59.60;;;;;;4988344;28;20054;-85
2022/03/24 10:12:37;;;;;;;29.10;19.05;;;15.50;59.20;;;;;;4980353;28;20026;-86
2022/03/24 10:15:20;;;;;;;27.58;19.10;;;15.60;59.00;;;;;;4992950;28;20050;-85
2022/03/24 10:17:54;;;;;;;27.75;18.75;;;15.70;58.00;;;;;;4992703;28;20022;-85
2022/03/24 10:20:21;;;;;;;28.63;17.30;;;15.80;57.50;;;;;;4978848;28;20079;-85
2022/03/24 10:22:56;;;;;;;27.40;18.85;;;15.80;57.70;;;;;;5000289;28;20070;-86
2022/03/24 10:25:24;;;;;;;27.35;18.95;;;15.90;55.20;;;;;;4990039;28;20026;-85
2022/03/24 10:27:51;;;;;;;29.92;19.15;;;15.90;54.70;;;;;;4992418;28;20081;-85
2022/03/24 10:30:17;;;;;;;27.08;17.95;;;16.00;53.90;;;;;;4979378;28;20031;-85
2022/03/24 10:32:55;;;;;;;27.92;18.40;;;16.10;54.70;;;;;;4988517;28;20034;-85
2022/03/24 10:35:21;;;;;;;30.73;19.23;;;16.20;54.80;;;;;;4992131;28;20037;-86
2022/03/24 10:37:52;;;;;;;25.52;19.15;;;16.30;53.90;;;;;;4992601;28;20043;-86
2022/03/24 10:40:17;;;;;;;29.40;18.70;;;16.30;53.40;;;;;;4983390;28;20023;-86
2022/03/24 10:42:43;;;;;;;26.92;16.88;;;16.40;54.10;;;;;;4980544;28;20054;-86
2022/03/24 10:45:20;;;;;;;27.50;17.98;;;16.50;52.70;;;;;;4989182;28;20027;-85
2022/03/24 10:48:00;;;;;;;25.48;16.40;;;16.50;52.80;;;;;;4983428;28;20307;-85
2022/03/24 10:50:38;;;;;;;25.33;17.27;;;16.60;52.60;;;;;;4994911;28;20022;-85
2022/03/24 10:53:12;;;;;;;25.85;17.73;;;16.70;52.40;;;;;;4992712;28;20014;-85
2022/03/24 10:55:44;;;;;;;29.02;17.63;;;16.70;52.30;;;;;;4992457;28;20479;-87
2022/03/24 10:58:14;;;;;;;26.83;16.63;;;16.70;52.20;;;;;;4990838;28;20575;-87
2022/03/24 11:00:41;;;;;;;26.48;16.60;;;16.70;52.30;;;;;;4990685;28;20027;-84
2022/03/24 11:03:07;;;;;;;30.55;16.92;;;16.80;52.80;;;;;;4988563;28;20040;-84
2022/03/24 11:05:33;;;;;;;25.58;18.00;;;16.90;52.60;;;;;;4984409;28;20022;-85
2022/03/24 11:07:59;;;;;;;26.33;17.15;;;16.90;51.70;;;;;;4988230;28;20399;-85
2022/03/24 11:10:24;;;;;;;24.55;16.95;;;17.00;52.50;;;;;;4984943;28;20087;-85
2022/03/24 11:12:52;;;;;;;23.27;16.92;;;17.00;51.90;;;;;;4988548;28;20031;-85
2022/03/24 11:15:19;;;;;;;30.55;17.73;;;17.10;51.20;;;;;;4978914;28;20050;-85
2022/03/24 11:17:46;;;;;;;27.08;16.48;;;17.10;51.30;;;;;;4985928;28;20121;-85
2022/03/24 11:20:21;;;;;;;27.35;16.98;;;17.20;51.20;;;;;;4993171;28;20042;-85
2022/03/24 11:22:55;;;;;;;25.67;16.38;;;17.30;51.00;;;;;;4989789;28;20047;-85
2022/03/24 11:25:22;;;;;;;23.95;16.70;;;17.40;51.80;;;;;;4998984;28;20039;-85
2022/03/24 11:27:49;;;;;;;24.25;16.55;;;17.40;51.50;;;;;;4992490;28;20037;-86
2022/03/24 11:30:16;;;;;;;27.27;16.90;;;17.50;51.40;;;;;;4994557;28;20022;-86
2022/03/24 11:32:44;;;;;;;27.52;17.75;;;17.50;51.10;;;;;;4995769;28;20513;-86
2022/03/24 11:35:11;;;;;;;30.42;17.38;;;17.50;50.90;;;;;;4995854;28;20533;-86
2022/03/24 11:37:37;;;;;;;29.00;18.00;;;17.60;51.20;;;;;;4993572;28;20041;-85
2022/03/24 11:40:05;;;;;;;27.48;17.38;;;17.70;51.40;;;;;;4988256;28;20400;-86
2022/03/24 11:42:33;;;;;;;27.10;17.50;;;17.80;50.80;;;;;;4994996;28;20130;-85
2022/03/24 11:45:03;;;;;;;33.35;20.23;;;17.90;51.00;;;;;;4979390;28;20027;-85
2022/03/24 11:47:48;;;;;;;30.38;19.52;;;18.00;49.70;;;;;;4976044;28;20031;-86
2022/03/24 11:50:17;;;;;;;28.70;18.67;;;18.00;49.60;;;;;;4976268;28;20030;-86
2022/03/24 11:52:44;;;;;;;27.17;18.90;;;18.00;50.10;;;;;;4989914;28;20026;-85
2022/03/24 11:55:15;;;;;;;29.40;18.35;;;18.10;49.90;;;;;;4995003;28;20191;-86
2022/03/24 11:57:41;;;;;;;24.00;17.92;;;18.20;49.70;;;;;;4988772;28;20105;-85
2022/03/24 12:00:13;;;;;;;30.90;18.83;;;18.20;49.00;;;;;;4995932;28;20050;-85
2022/03/24 12:02:44;;;;;;;29.98;18.95;;;18.20;48.10;;;;;;4994126;28;20121;-84
2022/03/24 12:05:10;;;;;;;32.88;18.80;;;18.10;47.70;;;;;;4988612;28;20080;-85
2022/03/24 12:07:37;;;;;;;29.50;18.40;;;18.10;48.30;;;;;;4994483;28;20254;-85
2022/03/24 12:10:13;;;;;;;30.48;20.75;;;18.20;48.20;;;;;;4995352;28;20022;-85
2022/03/24 12:12:59;;;;;;;31.40;20.90;;;18.30;48.30;;;;;;4994419;28;20529;-84
2022/03/24 12:15:25;;;;;;;32.97;20.20;;;18.50;48.60;;;;;;4976444;28;20055;-85
2022/03/24 12:18:05;;;;;;;29.30;19.77;;;18.60;48.00;;;;;;4985476;28;20026;-84
2022/03/24 12:20:45;;;;;;;30.52;19.55;;;18.50;47.30;;;;;;4991824;28;20054;-86
2022/03/24 12:23:11;;;;;;;30.10;20.15;;;18.60;47.80;;;;;;4993947;28;20041;-86
2022/03/24 12:25:38;;;;;;;28.33;18.40;;;18.50;47.80;;;;;;5012780;28;20030;-86
2022/03/24 12:28:09;;;;;;;31.67;19.25;;;18.60;48.30;;;;;;4988044;28;20073;-86
2022/03/24 12:31:00;;;;;;;32.90;20.70;;;18.80;47.90;;;;;;4979390;28;20036;-86
2022/03/24 12:33:41;;;;;;;26.63;18.27;;;18.90;47.60;;;;;;4985741;28;20038;-86
2022/03/24 12:36:13;;;;;;;27.25;18.50;;;19.00;47.70;;;;;;4984751;28;20034;-86
2022/03/24 12:38:45;;;;;;;;;;;19.20;47.60;;;;;;4992156;28;20030;-85